Time;durP1;ratioP1;P1;durP2;ratioP2;P2;SDS_P1;SDS_P2;PMS_P1;PMS_P2;Temp;Humidity;BMP_temperature;BMP_pressure;BME280_temperature;BME280_humidity;BME280_pressure;Samples;Min_cycle;Max_cycle;Signal;HPM_P1;HPM_P2
2023/11/15 00:01:07;;;;;;;5.70;5.15;;;;;;;9.57;100.00;100354.44;6059668;23;20054;-75
2023/11/15 00:03:33;;;;;;;4.72;4.47;;;;;;;9.63;100.00;100364.59;6082791;23;20022;-77
2023/11/15 00:06:00;;;;;;;6.13;4.72;;;;;;;7.83;100.00;100064.38;6066560;23;20045;-75
2023/11/15 00:08:27;;;;;;;7.38;5.40;;;;;;;9.33;100.00;100314.69;6063104;23;20081;-75
2023/11/15 00:10:54;;;;;;;9.82;5.90;;;;;;;9.46;100.00;100320.09;6083545;23;20050;-75
2023/11/15 00:13:20;;;;;;;8.60;4.82;;;;;;;9.63;100.00;100353.28;6091581;23;20174;-75
2023/11/15 00:15:47;;;;;;;4.70;4.40;;;;;;;9.43;100.00;100320.28;6038862;23;20026;-74
2023/11/15 00:18:13;;;;;;;5.05;4.65;;;;;;;9.27;100.00;100296.69;6089123;23;20097;-75
2023/11/15 00:20:40;;;;;;;5.32;4.90;;;;;;;9.51;100.00;100328.56;6080644;23;20034;-77
2023/11/15 00:23:08;;;;;;;6.68;4.60;;;;;;;8.99;100.00;100248.41;6057428;23;20026;-75
2023/11/15 00:25:35;;;;;;;6.50;5.60;;;;;;;9.30;100.00;100312.22;6080280;23;20563;-76
2023/11/15 00:28:03;;;;;;;8.68;5.25;;;;;;;9.09;100.00;100281.00;6033210;23;20457;-75
2023/11/15 00:30:29;;;;;;;5.57;5.18;;;;;;;9.52;100.00;100344.22;6081509;23;21900;-74
2023/11/15 00:32:56;;;;;;;5.40;5.10;;;;;;;9.13;100.00;100279.09;6055081;23;20098;-75
2023/11/15 00:35:23;;;;;;;5.63;5.20;;;;;;;9.56;100.00;100361.47;6063708;23;20038;-75
2023/11/15 00:37:49;;;;;;;5.68;5.10;;;;;;;9.09;100.00;100282.78;6081064;23;20038;-75
2023/11/15 00:40:16;;;;;;;6.40;5.72;;;;;;;9.69;100.00;100381.75;6087428;23;20026;-74
2023/11/15 00:42:43;;;;;;;4.82;4.53;;;;;;;9.76;100.00;100381.34;6089950;23;20398;-74
2023/11/15 00:45:11;;;;;;;5.95;4.93;;;;;;;9.90;100.00;100357.00;6055646;23;21453;-74
2023/11/15 00:47:39;;;;;;;5.15;4.65;;;;;;;9.65;100.00;100326.03;6089557;23;20026;-74
2023/11/15 00:50:07;;;;;;;6.10;4.65;;;;;;;9.64;100.00;100313.88;6065827;23;20087;-74
2023/11/15 00:52:34;;;;;;;4.30;4.10;;;;;;;9.76;100.00;100349.91;6059495;23;20029;-74
2023/11/15 00:55:00;;;;;;;5.32;5.03;;;;;;;9.71;100.00;100359.78;6082604;23;20030;-74
2023/11/15 00:57:27;;;;;;;5.97;5.47;;;;;;;9.68;100.00;100359.09;6085494;23;20028;-74
2023/11/15 00:59:54;;;;;;;5.20;4.80;;;;;;;8.92;100.00;100241.78;6088950;23;20049;-74
2023/11/15 01:02:21;;;;;;;5.35;4.95;;;;;;;9.02;100.00;100261.34;6092451;23;20022;-75
2023/11/15 01:04:50;;;;;;;10.10;5.60;;;;;;;9.52;100.00;100357.31;6082631;23;20049;-74
2023/11/15 01:07:17;;;;;;;9.80;4.57;;;;;;;9.72;100.00;100390.31;6060452;23;20011;-75
2023/11/15 01:09:44;;;;;;;16.20;4.70;;;;;;;9.53;100.00;100366.00;6083793;23;20096;-73
2023/11/15 01:12:10;;;;;;;7.85;4.57;;;;;;;8.95;100.00;100273.88;6061791;23;20398;-75
2023/11/15 01:14:37;;;;;;;4.70;4.40;;;;;;;9.18;100.00;100325.03;6089401;23;20218;-74
2023/11/15 01:17:04;;;;;;;5.47;4.88;;;;;;;9.61;100.00;100404.91;6079713;23;20543;-75
2023/11/15 01:19:31;;;;;;;5.82;4.78;;;;;;;9.30;100.00;100375.94;6094496;23;20056;-74
2023/11/15 01:21:58;;;;;;;5.30;5.00;;;;;;;9.61;100.00;100433.72;6084440;23;20025;-74
2023/11/15 01:24:25;;;;;;;4.80;4.55;;;;;;;9.62;100.00;100441.47;6086680;23;20030;-77
2023/11/15 01:26:52;;;;;;;5.53;5.22;;;;;;;9.42;100.00;100428.56;6081845;23;20083;-75
2023/11/15 01:29:21;;;;;;;6.57;4.70;;;;;;;9.24;100.00;100393.72;6057492;23;20031;-74
2023/11/15 01:31:48;;;;;;;5.20;4.75;;;;;;;8.90;100.00;100353.53;6052943;23;20034;-74
2023/11/15 01:34:18;;;;;;;5.25;4.60;;;;;;;8.96;100.00;100379.41;6087219;23;20018;-74
2023/11/15 01:36:46;;;;;;;4.75;4.47;;;;;;;9.24;100.00;100448.69;6036706;23;20516;-74
2023/11/15 01:39:16;;;;;;;5.35;4.95;;;;;;;9.20;100.00;100442.78;6085503;23;20026;-74
2023/11/15 01:41:48;;;;;;;9.63;5.32;;;;;;;9.68;100.00;100492.72;6044923;23;20042;-75
2023/11/15 01:44:16;;;;;;;4.88;4.57;;;;;;;9.46;100.00;100466.78;6085833;23;20102;-75
2023/11/15 01:46:46;;;;;;;5.53;5.05;;;;;;;9.64;100.00;100491.19;6057260;23;20030;-76
2023/11/15 01:49:12;;;;;;;5.28;4.60;;;;;;;9.26;100.00;100459.94;6079989;23;20337;-74
2023/11/15 01:51:39;;;;;;;10.02;9.52;;;;;;;9.65;100.00;100506.00;6027390;23;20186;-76
2023/11/15 01:54:18;;;;;;;5.15;4.75;;;;;;;9.62;100.00;100501.75;6027283;23;20359;-75
2023/11/15 01:56:45;;;;;;;4.82;4.53;;;;;;;8.22;100.00;100270.59;6053989;23;20045;-76
2023/11/15 01:59:13;;;;;;;5.78;4.70;;;;;;;8.60;100.00;100322.78;6036282;23;20030;-74
2023/11/15 02:01:42;;;;;;;15.52;5.32;;;;;;;9.67;100.00;100504.16;6081937;23;20075;-74
2023/11/15 02:04:09;;;;;;;4.75;4.50;;;;;;;9.22;100.00;100414.75;6054402;23;20089;-73
2023/11/15 02:06:37;;;;;;;4.93;4.60;;;;;;;9.39;100.00;100429.59;6056486;23;20491;-75
2023/11/15 02:09:05;;;;;;;5.72;5.13;;;;;;;9.50;100.00;100452.59;6050691;23;20108;-76
2023/11/15 02:11:31;;;;;;;7.88;4.78;;;;;;;9.41;100.00;100429.53;6086158;23;20017;-75
2023/11/15 02:13:59;;;;;;;4.78;4.57;;;;;;;8.48;100.00;100289.38;6052262;23;20030;-75
2023/11/15 02:16:26;;;;;;;8.25;5.15;;;;;;;9.71;100.00;100498.66;6089795;23;20025;-76
2023/11/15 02:18:56;;;;;;;7.57;6.75;;;;;;;9.77;100.00;100500.13;6044621;23;20036;-74
2023/11/15 02:21:25;;;;;;;7.93;4.68;;;;;;;8.33;100.00;100268.28;6087848;23;20034;-75
2023/11/15 02:24:00;;;;;;;4.88;4.57;;;;;;;9.38;100.00;100449.69;6080444;23;20037;-75
2023/11/15 02:26:35;;;;;;;5.35;4.95;;;;;;;9.71;100.00;100524.03;6089056;23;20150;-77
2023/11/15 02:29:02;;;;;;;6.13;5.72;;;;;;;9.36;100.00;100453.31;6063516;23;20612;-77
2023/11/15 02:31:29;;;;;;;5.47;4.70;;;;;;;9.19;100.00;100430.59;6068570;23;20257;-76
2023/11/15 02:33:56;;;;;;;4.65;4.35;;;;;;;9.72;100.00;100510.84;6087823;23;20437;-74
2023/11/15 02:36:26;;;;;;;4.25;4.05;;;;;;;8.90;100.00;100372.72;6089211;23;20302;-75
2023/11/15 02:38:53;;;;;;;10.80;5.85;;;;;;;9.07;100.00;100413.75;6034664;23;20030;-75
2023/11/15 02:41:21;;;;;;;4.65;4.40;;;;;;;9.17;100.00;100429.84;6063039;23;20044;-76
2023/11/15 02:44:22;;;;;;;5.85;4.68;;;;;;;9.73;100.00;100525.63;6092211;23;20013;-76
2023/11/15 02:47:38;;;;;;;;;;;;;;;;;;;;;
2023/11/15 02:53:25;;;;;;;7.57;4.72;;;;;;;9.86;100.00;100522.38;6093451;23;20291;-76
2023/11/15 02:55:55;;;;;;;5.95;4.63;;;;;;;9.82;100.00;100521.66;6090394;23;20029;-74
2023/11/15 02:58:21;;;;;;;4.88;4.47;;;;;;;9.64;100.00;100492.06;6080822;23;20084;-75
2023/11/15 03:00:48;;;;;;;5.53;5.13;;;;;;;9.70;100.00;100477.75;6082285;23;20342;-75
2023/11/15 03:03:15;;;;;;;4.30;4.10;;;;;;;9.64;100.00;100480.69;6057002;23;20530;-75
2023/11/15 03:05:42;;;;;;;5.88;4.55;;;;;;;8.46;100.00;100286.00;6082119;23;20042;-74
2023/11/15 03:08:08;;;;;;;8.00;4.32;;;;;;;9.51;100.00;100470.88;6087348;23;20030;-74
2023/11/15 03:10:35;;;;;;;5.90;4.70;;;;;;;9.65;100.00;100471.94;6070765;23;20025;-74
2023/11/15 03:13:03;;;;;;;8.95;5.43;;;;;;;9.51;100.00;100456.94;6080148;23;20294;-74
2023/11/15 03:15:30;;;;;;;4.72;4.43;;;;;;;9.79;100.00;100504.34;6079994;23;20104;-75
2023/11/15 03:17:57;;;;;;;5.07;4.68;;;;;;;9.77;100.00;100502.75;6084031;23;20713;-75
2023/11/15 03:20:23;;;;;;;7.72;5.78;;;;;;;9.78;100.00;100507.91;6057091;23;20570;-76
2023/11/15 03:22:50;;;;;;;7.07;5.50;;;;;;;9.81;100.00;100508.69;6078769;23;20040;-75
2023/11/15 03:25:17;;;;;;;5.10;4.80;;;;;;;9.84;100.00;100509.34;6064242;23;20333;-75
2023/11/15 03:27:44;;;;;;;4.85;4.55;;;;;;;9.06;100.00;100371.94;6080365;23;20099;-75
2023/11/15 03:30:12;;;;;;;8.85;5.28;;;;;;;9.57;100.00;100467.94;6076742;23;20216;-75
2023/11/15 03:32:38;;;;;;;5.10;4.70;;;;;;;9.84;100.00;100485.75;6085546;23;20619;-75
2023/11/15 03:35:05;;;;;;;8.35;5.65;;;;;;;9.10;100.00;100368.22;6081177;23;20500;-74
2023/11/15 03:37:32;;;;;;;9.80;4.60;;;;;;;9.50;100.00;100427.28;6055597;23;20032;-75
2023/11/15 03:39:58;;;;;;;6.78;6.13;;;;;;;9.63;100.00;100448.44;6062847;23;20026;-75
2023/11/15 03:42:24;;;;;;;5.55;5.05;;;;;;;9.57;100.00;100448.75;6084236;23;20460;-76
2023/11/15 03:44:51;;;;;;;5.75;5.43;;;;;;;9.20;100.00;100390.44;6045948;23;20047;-76
2023/11/15 03:47:19;;;;;;;5.00;4.55;;;;;;;9.32;100.00;100425.59;6059343;23;20081;-76
2023/11/15 03:49:45;;;;;;;9.88;4.45;;;;;;;9.74;100.00;100481.91;6030888;23;20046;-75
2023/11/15 03:52:12;;;;;;;4.20;4.00;;;;;;;8.92;100.00;100362.16;6056170;23;20398;-74
2023/11/15 03:54:39;;;;;;;5.10;4.60;;;;;;;9.69;100.00;100499.66;6085875;23;20022;-73
2023/11/15 03:57:07;;;;;;;5.22;4.72;;;;;;;9.79;100.00;100508.75;6052058;23;20183;-75
2023/11/15 03:59:36;;;;;;;4.82;4.63;;;;;;;9.79;100.00;100500.88;6080898;23;20032;-75
2023/11/15 04:02:03;;;;;;;6.13;5.57;;;;;;;9.78;100.00;100493.94;6054706;23;20020;-76
2023/11/15 04:04:29;;;;;;;8.60;4.28;;;;;;;9.36;100.00;100407.03;6085559;23;20180;-74
2023/11/15 04:06:56;;;;;;;12.73;5.47;;;;;;;9.74;100.00;100468.81;6046657;23;20320;-74
2023/11/15 04:09:23;;;;;;;4.68;4.38;;;;;;;9.51;100.00;100428.13;6087053;23;20030;-74
2023/11/15 04:11:49;;;;;;;8.65;4.30;;;;;;;9.79;100.00;100480.75;6086761;23;20076;-74
2023/11/15 04:14:17;;;;;;;4.13;3.92;;;;;;;8.61;100.00;100290.47;6061264;23;20034;-76
2023/11/15 04:16:44;;;;;;;9.50;5.57;;;;;;;8.74;100.00;100343.88;6055202;23;20351;-76
2023/11/15 04:19:11;;;;;;;10.30;4.78;;;;;;;9.81;100.00;100492.94;6084668;23;20044;-76
2023/11/15 04:21:37;;;;;;;7.20;4.18;;;;;;;9.09;100.00;100395.34;6080072;23;20041;-77
2023/11/15 04:24:04;;;;;;;4.88;4.57;;;;;;;9.68;100.00;100511.94;6085240;23;20089;-74
2023/11/15 04:26:30;;;;;;;5.43;5.03;;;;;;;9.64;100.00;100522.63;6087302;23;20026;-76
2023/11/15 04:28:57;;;;;;;5.22;4.82;;;;;;;9.54;100.00;100528.34;6054364;23;20029;-77
2023/11/15 04:31:24;;;;;;;5.65;5.00;;;;;;;9.01;100.00;100452.47;6086044;23;20038;-75
2023/11/15 04:33:51;;;;;;;7.05;4.82;;;;;;;9.25;100.00;100508.00;6088474;23;20018;-75
2023/11/15 04:36:19;;;;;;;4.50;4.20;;;;;;;9.50;100.00;100567.84;6065759;23;20088;-74
2023/11/15 04:38:47;;;;;;;4.97;4.57;;;;;;;8.91;100.00;100488.72;6069959;23;20037;-75
2023/11/15 04:41:15;;;;;;;4.25;4.00;;;;;;;9.49;100.00;100572.25;6079957;23;20030;-76
2023/11/15 04:43:41;;;;;;;6.57;4.60;;;;;;;8.72;100.00;100442.53;6081886;23;20358;-74
2023/11/15 04:46:08;;;;;;;9.20;5.25;;;;;;;8.83;100.00;100475.16;6060346;23;20085;-75
2023/11/15 04:48:35;;;;;;;4.25;4.05;;;;;;;9.13;100.00;100533.84;6084035;23;20018;-74
2023/11/15 04:51:02;;;;;;;4.75;4.55;;;;;;;8.99;100.00;100508.34;6057227;23;20034;-77
2023/11/15 04:53:29;;;;;;;10.02;5.07;;;;;;;8.99;100.00;100515.38;6055668;23;20089;-75
2023/11/15 04:55:55;;;;;;;4.65;4.22;;;;;;;9.50;100.00;100594.06;6086936;23;20437;-74
2023/11/15 04:58:22;;;;;;;5.10;4.45;;;;;;;9.05;100.00;100537.78;6082800;23;20591;-75
2023/11/15 05:00:48;;;;;;;5.30;5.00;;;;;;;8.82;100.00;100495.25;6059482;23;20614;-75
2023/11/15 05:03:15;;;;;;;4.85;4.50;;;;;;;9.65;100.00;100602.94;6063766;23;20073;-75
2023/11/15 05:05:45;;;;;;;4.50;4.25;;;;;;;9.40;100.00;100572.69;6059865;23;20042;-74
2023/11/15 05:08:12;;;;;;;4.60;4.30;;;;;;;9.32;100.00;100538.19;6093793;23;20018;-75
2023/11/15 05:10:39;;;;;;;8.50;5.28;;;;;;;9.61;100.00;100585.69;6076109;23;20358;-75
2023/11/15 05:13:09;;;;;;;4.90;4.13;;;;;;;9.05;100.00;100512.44;6091740;23;20253;-76
2023/11/15 05:15:39;;;;;;;5.05;4.60;;;;;;;9.64;100.00;100582.88;6085815;23;20033;-76
2023/11/15 05:18:05;;;;;;;4.35;4.10;;;;;;;9.65;100.00;100584.59;6065003;23;20030;-76
2023/11/15 05:20:41;;;;;;;8.48;4.47;;;;;;;9.64;100.00;100580.28;6074864;23;20109;-76
2023/11/15 05:23:15;;;;;;;6.30;3.95;;;;;;;9.64;100.00;100577.66;6094946;23;22109;-76
2023/11/15 05:25:42;;;;;;;5.22;4.82;;;;;;;9.06;100.00;100476.63;6085595;23;20017;-73
2023/11/15 05:28:09;;;;;;;4.18;3.97;;;;;;;9.18;100.00;100523.16;6091810;23;20034;-75
2023/11/15 05:30:47;;;;;;;;;;;;;;;;;;;;;
2023/11/15 05:33:21;;;;;;;5.07;4.30;;;;;;;9.51;100.00;100564.34;6092090;23;20024;-74
2023/11/15 05:35:57;;;;;;;4.40;4.20;;;;;;;9.05;100.00;100483.66;6071738;23;20045;-74
2023/11/15 05:38:37;;;;;;;4.90;4.20;;;;;;;9.21;100.00;100512.53;6094742;23;20014;-73
2023/11/15 05:41:28;;;;;;;4.65;4.35;;;;;;;9.53;100.00;100576.41;6088092;23;20017;-76
2023/11/15 05:43:55;;;;;;;17.15;4.88;;;;;;;9.56;100.00;100573.66;6093790;23;20087;-74
2023/11/15 05:46:41;;;;;;;9.13;3.95;;;;;;;9.23;100.00;100533.44;6065266;23;20030;-75
2023/11/15 05:49:36;;;;;;;7.82;4.25;;;;;;;9.53;100.00;100571.19;6071463;23;20020;-75
2023/11/15 05:52:15;;;;;;;7.38;4.35;;;;;;;9.54;100.00;100572.03;6073045;23;20093;-74
2023/11/15 05:55:36;;;;;;;4.43;4.13;;;;;;;9.50;100.00;100555.63;6025982;23;20055;-76
2023/11/15 05:58:06;;;;;;;10.20;4.35;;;;;;;5.86;100.00;99974.59;6005350;23;20498;-74
2023/11/15 06:01:04;;;;;;;6.80;5.03;;;;;;;9.56;100.00;100586.75;6041253;23;20250;-76
2023/11/15 06:03:40;;;;;;;4.20;4.00;;;;;;;9.37;100.00;100546.69;6088667;23;20101;-75
2023/11/15 06:06:51;;;;;;;5.00;4.50;;;;;;;8.83;100.00;100481.25;6042021;23;20034;-75
2023/11/15 06:09:18;;;;;;;6.00;4.50;;;;;;;9.48;100.00;100604.63;6063093;23;20369;-75
2023/11/15 06:11:45;;;;;;;8.48;4.30;;;;;;;9.43;100.00;100614.47;6099657;23;20024;-75
2023/11/15 06:14:15;;;;;;;5.47;4.95;;;;;;;9.49;100.00;100619.41;6064024;23;20034;-77
2023/11/15 06:17:01;;;;;;;5.90;5.30;;;;;;;9.10;100.00;100561.94;6078143;23;20037;-78
2023/11/15 06:20:13;;;;;;;;;;;;;;;;;;;;;
2023/11/15 06:22:50;;;;;;;4.60;4.15;;;;;;;9.09;100.00;100595.16;6050211;23;20047;-77
2023/11/15 06:25:27;;;;;;;5.20;4.70;;;;;;;9.42;100.00;100648.59;6096271;23;20028;-76
2023/11/15 06:28:09;;;;;;;5.47;5.07;;;;;;;9.44;100.00;100658.09;6063609;23;20053;-74
2023/11/15 06:31:04;;;;;;;4.80;4.53;;;;;;;9.45;100.00;100665.00;6073696;23;20022;-78
2023/11/15 06:33:37;;;;;;;4.10;3.90;;;;;;;9.21;100.00;100622.53;6029592;23;20022;-77
2023/11/15 06:36:04;;;;;;;4.60;4.20;;;;;;;9.08;100.00;100593.47;6062349;23;20511;-75
2023/11/15 06:39:08;;;;;;;4.70;4.50;;;;;;;9.22;100.00;100618.13;6064916;23;20026;-75
2023/11/15 06:41:39;;;;;;;4.97;4.67;;;;;;;8.72;100.00;100539.31;6060693;23;20097;-74
2023/11/15 06:44:07;;;;;;;4.55;4.35;;;;;;;7.90;100.00;100401.03;6067229;23;20019;-74
2023/11/15 06:46:38;;;;;;;12.05;4.70;;;;;;;6.99;100.00;100245.00;6098174;23;20039;-76
2023/11/15 06:49:06;;;;;;;4.57;4.30;;;;;;;9.56;100.00;100661.88;6070404;23;20025;-74
2023/11/15 06:51:36;;;;;;;6.50;5.25;;;;;;;9.55;100.00;100650.53;6086005;23;20791;-76
2023/11/15 06:54:04;;;;;;;4.30;4.10;;;;;;;9.51;100.00;100645.53;6052590;23;20450;-74
2023/11/15 06:56:30;;;;;;;5.10;4.70;;;;;;;9.15;100.00;100600.09;6083390;23;20030;-75
2023/11/15 06:58:57;;;;;;;6.30;5.70;;;;;;;9.46;100.00;100643.16;6081267;23;20026;-76
2023/11/15 07:01:26;;;;;;;4.50;4.30;;;;;;;9.11;100.00;100593.31;6089308;23;20071;-76
2023/11/15 07:03:54;;;;;;;4.60;4.30;;;;;;;8.72;100.00;100512.28;6059016;23;20029;-74
2023/11/15 07:06:20;;;;;;;4.60;4.28;;;;;;;9.15;100.00;100586.16;6090654;23;20033;-75
2023/11/15 07:08:47;;;;;;;6.50;5.13;;;;;;;7.46;100.00;100385.59;6061755;23;20037;-76
2023/11/15 07:11:14;;;;;;;6.18;4.72;;;;;;;8.99;100.00;100557.25;6100424;23;20040;-75
2023/11/15 07:13:40;;;;;;;5.32;4.60;;;;;;;8.92;100.00;100551.47;6076228;23;20077;-76
2023/11/15 07:16:09;;;;;;;4.50;4.30;;;;;;;9.68;100.00;100663.03;6097739;23;20471;-74
2023/11/15 07:18:35;;;;;;;4.55;4.35;;;;;;;9.47;100.00;100642.22;6101247;23;20018;-76
2023/11/15 07:21:07;;;;;;;6.88;4.93;;;;;;;8.06;100.00;100403.78;6048705;23;20026;-77
2023/11/15 07:23:34;;;;;;;4.97;4.57;;;;;;;9.76;100.00;100660.88;6071451;23;20033;-78
2023/11/15 07:26:01;;;;;;;4.88;4.57;;;;;;;8.80;100.00;100518.03;6094785;23;20019;-74
2023/11/15 07:28:28;;;;;;;7.82;4.55;;;;;;;6.75;100.00;100172.13;6075799;23;20296;-75
2023/11/15 07:30:55;;;;;;;5.93;5.53;;;;;;;9.77;100.00;100657.38;6095191;23;20096;-76
2023/11/15 07:33:22;;;;;;;5.43;4.90;;;;;;;9.25;100.00;100557.75;6096540;23;20028;-72
2023/11/15 07:35:50;;;;;;;5.13;4.78;;;;;;;9.67;100.00;100682.31;6093536;23;20049;-78
2023/11/15 07:38:16;;;;;;;5.07;4.50;;;;;;;8.67;100.00;100486.34;6073526;23;20029;-78
2023/11/15 07:40:43;;;;;;;4.90;4.60;;;;;;;9.63;100.00;100652.81;6092430;23;20042;-79
2023/11/15 07:43:10;;;;;;;4.30;4.10;;;;;;;9.64;100.00;100662.38;6046530;23;20025;-76
2023/11/15 07:45:38;;;;;;;4.55;4.35;;;;;;;8.71;100.00;100539.38;6102567;23;20287;-76
2023/11/15 07:48:06;;;;;;;5.15;4.85;;;;;;;9.79;100.00;100672.06;6103661;23;20033;-77
2023/11/15 07:50:34;;;;;;;4.40;4.20;;;;;;;9.77;100.00;100675.72;6094275;23;20268;-76
2023/11/15 07:53:04;;;;;;;5.72;5.43;;;;;;;9.74;100.00;100660.13;6093339;23;20036;-75
2023/11/15 07:55:32;;;;;;;4.65;4.35;;;;;;;9.89;100.00;100669.00;6095896;23;20021;-75
2023/11/15 07:57:58;;;;;;;6.25;4.47;;;;;;;9.29;100.00;100548.84;6110036;23;20052;-74
2023/11/15 08:00:25;;;;;;;4.57;4.30;;;;;;;9.31;100.00;100553.06;6076106;23;20093;-76
2023/11/15 08:02:52;;;;;;;6.25;5.90;;;;;;;9.03;100.00;100501.22;6102509;23;20034;-74
2023/11/15 08:05:20;;;;;;;8.30;5.45;;;;;;;9.05;100.00;100516.84;6056232;23;20055;-75
2023/11/15 08:07:48;;;;;;;5.05;4.53;;;;;;;9.98;100.00;100600.38;6084283;23;20052;-77
2023/11/15 08:10:15;;;;;;;4.60;4.32;;;;;;;9.81;100.00;100579.44;6074756;23;20033;-75
2023/11/15 08:12:49;;;;;;;4.90;4.50;;;;;;;10.11;100.00;100621.59;6092538;23;20084;-75
2023/11/15 08:15:16;;;;;;;5.82;5.47;;;;;;;9.44;100.00;100511.41;6060737;23;20069;-73
2023/11/15 08:17:46;;;;;;;4.18;3.97;;;;;;;9.16;100.00;100465.66;6091117;23;20028;-72
2023/11/15 08:20:14;;;;;;;4.60;4.40;;;;;;;8.91;100.00;100431.16;6094571;23;20060;-75
2023/11/15 08:22:41;;;;;;;15.13;5.28;;;;;;;10.30;100.00;100616.25;6063596;23;20094;-75
2023/11/15 08:25:10;;;;;;;9.32;5.00;;;;;;;10.24;100.00;100606.06;6088050;23;20034;-74
2023/11/15 08:27:40;;;;;;;4.57;4.38;;;;;;;10.15;100.00;100607.38;6069142;23;20480;-74
2023/11/15 08:30:17;;;;;;;4.55;4.32;;;;;;;10.29;100.00;100611.91;6086819;23;20106;-75
2023/11/15 08:32:45;;;;;;;4.65;4.38;;;;;;;9.46;100.00;100477.25;6090380;23;20030;-76
2023/11/15 08:35:14;;;;;;;5.60;5.10;;;;;;;10.05;100.00;100561.59;6064441;23;20445;-72
2023/11/15 08:37:41;;;;;;;4.90;4.50;;;;;;;10.41;100.00;100613.91;6088434;23;20114;-74
2023/11/15 08:40:10;;;;;;;11.43;4.63;;;;;;;10.45;100.00;100583.13;6029895;23;20090;-78
2023/11/15 08:42:54;;;;;;;11.27;5.63;;;;;;;9.35;100.00;100431.50;6084829;23;20059;-77
2023/11/15 08:45:21;;;;;;;4.63;4.32;;;;;;;9.88;100.00;100531.88;6093606;23;20010;-75
2023/11/15 08:47:47;;;;;;;5.28;4.88;;;;;;;9.73;100.00;100533.50;6067340;23;20655;-76
2023/11/15 08:50:15;;;;;;;4.50;4.30;;;;;;;9.54;100.00;100467.22;6045673;23;20042;-74
2023/11/15 08:52:41;;;;;;;4.45;4.15;;;;;;;10.56;100.00;100618.38;6068372;23;20070;-73
2023/11/15 08:55:11;;;;;;;5.55;5.05;;;;;;;10.65;100.00;100611.75;6088331;23;20030;-75
2023/11/15 08:57:39;;;;;;;9.88;4.82;;;;;;;10.21;100.00;100512.66;6048042;23;20264;-75
2023/11/15 09:00:12;;;;;;;4.82;4.50;;;;;;;10.62;100.00;100575.19;6089902;23;20028;-75
2023/11/15 09:02:48;;;;;;;5.10;4.60;;;;;;;10.74;100.00;100579.78;6086941;23;20377;-76
2023/11/15 09:05:15;;;;;;;22.08;5.00;;;;;;;10.16;100.00;100436.00;6048418;23;20032;-73
2023/11/15 09:07:44;;;;;;;4.90;4.50;;;;;;;10.69;100.00;100510.09;6083774;23;20344;-75
2023/11/15 09:10:13;;;;;;;7.45;5.30;;;;;;;10.93;100.00;100513.97;6086911;23;20028;-73
2023/11/15 09:12:46;;;;;;;7.40;5.45;;;;;;;10.76;100.00;100462.44;6053565;23;20029;-77
2023/11/15 09:15:13;;;;;;;5.35;4.97;;;;;;;10.76;100.00;100474.69;6055797;23;20026;-71
2023/11/15 09:17:47;;;;;;;5.65;5.15;;;;;;;10.81;100.00;100484.94;6053945;23;20042;-72
2023/11/15 09:20:20;;;;;;;6.68;4.80;;;;;;;11.36;100.00;100555.31;6054896;23;20208;-73
2023/11/15 09:22:53;;;;;;;5.90;5.55;;;;;;;10.02;100.00;100307.44;6075306;23;20508;-74
2023/11/15 09:25:24;;;;;;;6.60;6.20;;;;;;;11.02;100.00;100441.69;6051620;23;20026;-73
2023/11/15 09:27:55;;;;;;;5.82;4.75;;;;;;;11.72;100.00;100504.97;6083034;23;20040;-74
2023/11/15 09:30:25;;;;;;;5.30;4.85;;;;;;;11.85;100.00;100481.44;6050955;23;20037;-77
2023/11/15 09:32:53;;;;;;;7.93;5.68;;;;;;;11.90;100.00;100489.06;6081267;23;20594;-73
2023/11/15 09:35:21;;;;;;;6.05;5.03;;;;;;;11.62;100.00;100424.16;6047509;23;20019;-73
2023/11/15 09:37:50;;;;;;;5.03;4.63;;;;;;;11.66;100.00;100405.47;6081281;23;20038;-74
2023/11/15 09:40:18;;;;;;;5.60;5.22;;;;;;;11.53;100.00;100409.78;6049714;23;20025;-74
2023/11/15 09:42:46;;;;;;;5.38;4.82;;;;;;;11.55;100.00;100448.19;6073298;23;20029;-74
2023/11/15 09:45:19;;;;;;;5.15;4.72;;;;;;;11.26;100.00;100396.53;6052778;23;20039;-75
2023/11/15 09:47:50;;;;;;;6.43;4.65;;;;;;;11.64;100.00;100448.56;6072808;23;20230;-75
2023/11/15 09:50:23;;;;;;;7.30;4.82;;;;;;;11.75;100.00;100467.16;6082073;23;20354;-75
2023/11/15 09:52:55;;;;;;;6.80;6.30;;;;;;;12.06;100.00;100481.06;6073694;23;20366;-74
2023/11/15 09:55:29;;;;;;;5.25;4.85;;;;;;;12.00;100.00;100411.28;6054249;23;20014;-72
2023/11/15 09:57:55;;;;;;;12.02;5.25;;;;;;;12.06;100.00;100375.88;6053976;23;20187;-74
2023/11/15 10:00:23;;;;;;;7.53;5.10;;;;;;;12.00;100.00;100345.53;6078480;23;20436;-74
2023/11/15 10:02:51;;;;;;;7.70;6.35;;;;;;;11.98;100.00;100356.16;6075813;23;20045;-75
2023/11/15 10:05:28;;;;;;;7.00;5.90;;;;;;;12.08;100.00;100397.66;6058588;23;20693;-72
2023/11/15 10:08:04;;;;;;;5.97;5.50;;;;;;;12.01;100.00;100393.72;6054866;23;20033;-74
2023/11/15 10:10:31;;;;;;;5.70;4.95;;;;;;;12.17;100.00;100315.53;6053206;23;20026;-74
2023/11/15 10:12:58;;;;;;;6.45;6.00;;;;;;;12.15;100.00;100284.06;6072366;23;20278;-74
2023/11/15 10:15:36;;;;;;;5.05;4.85;;;;;;;11.95;100.00;100242.44;6080189;23;20029;-74
2023/11/15 10:18:11;;;;;;;5.45;5.05;;;;;;;12.29;100.00;100306.84;6027410;23;20019;-72
2023/11/15 10:20:41;;;;;;;5.20;4.88;;;;;;;12.52;100.00;100349.22;6086828;23;20530;-74
2023/11/15 10:23:12;;;;;;;5.53;4.53;;;;;;;12.54;100.00;100321.84;6048577;23;20539;-75
2023/11/15 10:25:52;;;;;;;7.97;4.70;;;;;;;12.69;100.00;100348.06;6059351;23;20042;-73
2023/11/15 10:28:25;;;;;;;5.85;5.40;;;;;;;12.73;100.00;100274.06;6018342;23;20026;-74
2023/11/15 10:31:14;;;;;;;5.90;5.60;;;;;;;12.85;100.00;100277.66;6054809;23;20495;-75
2023/11/15 10:33:49;;;;;;;4.65;4.45;;;;;;;12.75;100.00;100268.72;6046655;23;20038;-74
2023/11/15 10:36:17;;;;;;;4.97;4.78;;;;;;;12.75;100.00;100247.63;6079722;23;20523;-74
2023/11/15 10:38:51;;;;;;;6.60;4.97;;;;;;;12.71;100.00;100262.81;6045761;23;20077;-73
2023/11/15 10:41:30;;;;;;;5.30;5.00;;;;;;;12.83;100.00;100316.41;6055517;23;20045;-74
2023/11/15 10:43:57;;;;;;;8.32;5.00;;;;;;;11.55;100.00;100111.78;6072215;23;20421;-73
2023/11/15 10:46:29;;;;;;;5.15;4.90;;;;;;;12.66;100.00;100312.28;6026819;23;20464;-74
2023/11/15 10:49:00;;;;;;;5.93;5.63;;;;;;;12.59;100.00;100355.78;6072433;23;20199;-74
2023/11/15 10:51:42;;;;;;;5.22;4.93;;;;;;;12.06;100.00;100287.28;6078418;23;20021;-74
2023/11/15 10:54:13;;;;;;;5.57;5.03;;;;;;;12.40;100.00;100342.13;6049009;23;20079;-74
2023/11/15 10:56:41;;;;;;;6.90;4.88;;;;;;;12.52;100.00;100365.84;6080457;23;20026;-74
2023/11/15 10:59:10;;;;;;;8.40;6.20;;;;;;;11.32;100.00;100157.94;6045637;23;20107;-73
2023/11/15 11:01:37;;;;;;;5.85;5.43;;;;;;;12.42;100.00;100317.38;6054333;23;20375;-73
2023/11/15 11:04:08;;;;;;;5.88;4.82;;;;;;;12.70;100.00;100350.63;6076118;23;20615;-75
2023/11/15 11:06:57;;;;;;;5.47;5.18;;;;;;;12.74;100.00;100291.53;6071389;23;20034;-74
2023/11/15 11:09:50;;;;;;;5.57;4.72;;;;;;;12.63;100.00;100299.34;6050611;23;20459;-74
2023/11/15 11:12:21;;;;;;;5.45;4.95;;;;;;;12.42;100.00;100270.00;6057622;23;20036;-73
2023/11/15 11:15:23;;;;;;;6.25;5.93;;;;;;;12.19;100.00;100313.66;6070632;23;20010;-75
2023/11/15 11:18:03;;;;;;;10.60;4.72;;;;;;;12.10;100.00;100330.00;6020125;23;20025;-73
2023/11/15 11:20:35;;;;;;;6.82;5.63;;;;;;;12.66;100.00;100364.94;6053163;23;20050;-76
2023/11/15 11:23:22;;;;;;;5.50;5.20;;;;;;;12.95;100.00;100364.78;6070870;23;20144;-73
2023/11/15 11:25:51;;;;;;;5.25;4.95;;;;;;;12.76;100.00;100278.28;6072301;23;20292;-73
2023/11/15 11:28:20;;;;;;;5.40;5.00;;;;;;;13.23;98.18;100233.78;6051440;23;20091;-75
2023/11/15 11:31:18;;;;;;;6.25;5.75;;;;;;;12.94;98.70;100226.97;6070569;23;20449;-75
2023/11/15 11:34:04;;;;;;;5.57;5.18;;;;;;;12.96;99.55;100279.53;6074498;23;20085;-74
2023/11/15 11:36:58;;;;;;;8.48;5.68;;;;;;;12.83;98.70;100249.72;6044925;23;20101;-75
2023/11/15 11:39:46;;;;;;;5.30;4.95;;;;;;;12.86;99.10;100271.44;6048259;23;20047;-74
2023/11/15 11:42:24;;;;;;;5.60;5.30;;;;;;;12.58;97.13;100167.16;6029730;23;20036;-73
2023/11/15 11:44:54;;;;;;;6.18;5.88;;;;;;;12.77;95.69;100191.28;6020798;23;20425;-72
2023/11/15 11:47:21;;;;;;;7.75;5.00;;;;;;;12.36;96.70;100155.47;6042896;23;20032;-72